In Rescue
 
Open Full Screen Window  High Contrast Mode
Wind Gusting 00 knots
03
July 23, 2019 12:55 AM EDT
Weather Information
Wind Direction
  290 °
Wind Speed
  03 kt (3 mph)
Wind Gust
  00 kt (0 mph)
Altimeter
30.03 in
Visibility
10 SM
Temperature
16° C
61° F
Dewpoint
13° C
55° F
Humidity
83%
1hr Rain Fall
00.00 in.
24hr Rain Fall
00.00 in.
Sky Condition
Scattered @ 7,000 ft
VFR

METAR KOZW 230455Z AUTO 29003KT 10SM SCT070 16/13 A3003 RMK AO2 T01600128

FAA Disclaimer: The data displayed is for advisory purposes only and is not to be used for flight planning or operations.